sensor_id;sensor_type;location;lat;lon;timestamp;P1;durP1;ratioP1;P2;durP2;ratioP2
44145;SDS011;29809;52.432;4.780;2022-09-03T00:02:06;1.10;;;1.02;;
44145;SDS011;29809;52.432;4.780;2022-09-03T00:07:01;1.92;;;1.10;;
44145;SDS011;29809;52.432;4.780;2022-09-03T00:09:29;1.45;;;0.88;;
44145;SDS011;29809;52.432;4.780;2022-09-03T00:12:14;1.98;;;1.17;;
44145;SDS011;29809;52.432;4.780;2022-09-03T00:17:18;1.58;;;1.30;;
44145;SDS011;29809;52.432;4.780;2022-09-03T00:19:45;3.90;;;1.15;;
44145;SDS011;29809;52.432;4.780;2022-09-03T00:22:20;1.90;;;1.10;;
44145;SDS011;29809;52.432;4.780;2022-09-03T00:24:47;3.65;;;1.10;;
44145;SDS011;29809;52.432;4.780;2022-09-03T00:27:21;2.75;;;1.33;;
44145;SDS011;29809;52.432;4.780;2022-09-03T00:29:58;3.08;;;1.20;;
44145;SDS011;29809;52.432;4.780;2022-09-03T00:35:17;2.40;;;1.40;;
44145;SDS011;29809;52.432;4.780;2022-09-03T00:37:44;2.83;;;1.33;;
44145;SDS011;29809;52.432;4.780;2022-09-03T00:40:14;1.58;;;1.13;;
44145;SDS011;29809;52.432;4.780;2022-09-03T00:42:46;1.63;;;1.33;;
44145;SDS011;29809;52.432;4.780;2022-09-03T00:45:27;1.55;;;0.98;;
44145;SDS011;29809;52.432;4.780;2022-09-03T00:48:03;1.50;;;1.40;;
44145;SDS011;29809;52.432;4.780;2022-09-03T00:52:59;5.82;;;1.27;;
44145;SDS011;29809;52.432;4.780;2022-09-03T01:00:33;1.95;;;1.00;;
44145;SDS011;29809;52.432;4.780;2022-09-03T01:13:45;1.23;;;1.10;;
44145;SDS011;29809;52.432;4.780;2022-09-03T01:16:14;4.63;;;1.50;;
44145;SDS011;29809;52.432;4.780;2022-09-03T01:37:12;1.20;;;1.10;;
44145;SDS011;29809;52.432;4.780;2022-09-03T01:42:18;4.03;;;1.10;;
44145;SDS011;29809;52.432;4.780;2022-09-03T02:00:01;5.18;;;1.33;;
44145;SDS011;29809;52.432;4.780;2022-09-03T02:02:28;1.48;;;1.17;;
44145;SDS011;29809;52.432;4.780;2022-09-03T02:05:02;2.03;;;0.98;;
44145;SDS011;29809;52.432;4.780;2022-09-03T02:07:29;3.88;;;1.40;;
44145;SDS011;29809;52.432;4.780;2022-09-03T02:09:57;2.53;;;1.20;;
44145;SDS011;29809;52.432;4.780;2022-09-03T02:12:22;1.20;;;0.80;;
44145;SDS011;29809;52.432;4.780;2022-09-03T02:14:48;4.20;;;1.50;;
44145;SDS011;29809;52.432;4.780;2022-09-03T02:17:13;1.23;;;1.13;;
44145;SDS011;29809;52.432;4.780;2022-09-03T02:19:38;2.28;;;0.98;;
44145;SDS011;29809;52.432;4.780;2022-09-03T02:22:04;2.80;;;1.30;;
44145;SDS011;29809;52.432;4.780;2022-09-03T02:24:35;4.10;;;1.33;;
44145;SDS011;29809;52.432;4.780;2022-09-03T02:27:01;1.83;;;1.10;;
44145;SDS011;29809;52.432;4.780;2022-09-03T02:29:26;2.13;;;0.88;;
44145;SDS011;29809;52.432;4.780;2022-09-03T02:34:55;2.42;;;1.10;;
44145;SDS011;29809;52.432;4.780;2022-09-03T02:37:20;4.65;;;1.20;;
44145;SDS011;29809;52.432;4.780;2022-09-03T02:39:46;1.92;;;1.02;;
44145;SDS011;29809;52.432;4.780;2022-09-03T02:42:11;1.90;;;1.00;;
44145;SDS011;29809;52.432;4.780;2022-09-03T02:44:42;3.53;;;1.33;;
44145;SDS011;29809;52.432;4.780;2022-09-03T02:47:08;3.17;;;1.05;;
44145;SDS011;29809;52.432;4.780;2022-09-03T02:49:34;1.90;;;0.98;;
44145;SDS011;29809;52.432;4.780;2022-09-03T02:52:00;4.25;;;2.03;;
44145;SDS011;29809;52.432;4.780;2022-09-03T02:54:26;2.42;;;1.20;;
44145;SDS011;29809;52.432;4.780;2022-09-03T02:56:52;2.35;;;1.10;;
44145;SDS011;29809;52.432;4.780;2022-09-03T02:59:17;1.55;;;1.05;;
44145;SDS011;29809;52.432;4.780;2022-09-03T03:01:43;3.65;;;1.30;;
44145;SDS011;29809;52.432;4.780;2022-09-03T03:04:08;1.55;;;1.13;;
44145;SDS011;29809;52.432;4.780;2022-09-03T03:06:34;1.65;;;1.00;;
44145;SDS011;29809;52.432;4.780;2022-09-03T03:08:59;1.67;;;1.08;;
44145;SDS011;29809;52.432;4.780;2022-09-03T03:11:29;2.60;;;1.10;;
44145;SDS011;29809;52.432;4.780;2022-09-03T03:13:54;2.22;;;0.90;;
44145;SDS011;29809;52.432;4.780;2022-09-03T03:16:19;3.20;;;1.40;;
44145;SDS011;29809;52.432;4.780;2022-09-03T03:18:45;1.20;;;1.10;;
44145;SDS011;29809;52.432;4.780;2022-09-03T03:21:12;2.40;;;1.20;;
44145;SDS011;29809;52.432;4.780;2022-09-03T03:23:37;3.15;;;1.13;;
44145;SDS011;29809;52.432;4.780;2022-09-03T03:26:04;2.03;;;1.20;;
44145;SDS011;29809;52.432;4.780;2022-09-03T03:28:30;2.17;;;1.20;;
44145;SDS011;29809;52.432;4.780;2022-09-03T03:31:19;3.50;;;1.23;;
44145;SDS011;29809;52.432;4.780;2022-09-03T03:33:43;2.03;;;1.35;;
44145;SDS011;29809;52.432;4.780;2022-09-03T03:36:11;2.70;;;1.20;;
44145;SDS011;29809;52.432;4.780;2022-09-03T03:38:36;2.35;;;1.15;;
44145;SDS011;29809;52.432;4.780;2022-09-03T03:43:33;1.52;;;0.93;;
44145;SDS011;29809;52.432;4.780;2022-09-03T03:45:58;4.78;;;1.20;;
44145;SDS011;29809;52.432;4.780;2022-09-03T03:48:24;3.05;;;1.25;;
44145;SDS011;29809;52.432;4.780;2022-09-03T03:50:50;2.15;;;1.10;;
44145;SDS011;29809;52.432;4.780;2022-09-03T03:53:15;1.92;;;1.23;;
44145;SDS011;29809;52.432;4.780;2022-09-03T03:55:40;2.60;;;1.15;;
44145;SDS011;29809;52.432;4.780;2022-09-03T03:58:06;3.33;;;1.00;;
44145;SDS011;29809;52.432;4.780;2022-09-03T04:00:31;1.42;;;1.20;;
44145;SDS011;29809;52.432;4.780;2022-09-03T04:02:58;1.10;;;0.75;;
44145;SDS011;29809;52.432;4.780;2022-09-03T04:05:23;1.73;;;1.10;;
44145;SDS011;29809;52.432;4.780;2022-09-03T04:07:48;1.65;;;1.30;;
44145;SDS011;29809;52.432;4.780;2022-09-03T04:10:13;2.03;;;1.45;;
44145;SDS011;29809;52.432;4.780;2022-09-03T04:12:39;3.17;;;1.20;;
44145;SDS011;29809;52.432;4.780;2022-09-03T04:15:04;2.33;;;1.13;;
44145;SDS011;29809;52.432;4.780;2022-09-03T04:17:30;1.58;;;1.20;;
44145;SDS011;29809;52.432;4.780;2022-09-03T04:19:56;1.20;;;1.10;;
44145;SDS011;29809;52.432;4.780;2022-09-03T04:22:21;1.33;;;0.90;;
44145;SDS011;29809;52.432;4.780;2022-09-03T04:24:46;1.75;;;1.15;;
44145;SDS011;29809;52.432;4.780;2022-09-03T04:27:11;2.63;;;1.20;;
44145;SDS011;29809;52.432;4.780;2022-09-03T04:29:36;1.00;;;0.90;;
44145;SDS011;29809;52.432;4.780;2022-09-03T04:32:02;1.83;;;1.35;;
44145;SDS011;29809;52.432;4.780;2022-09-03T04:34:46;3.05;;;1.40;;
44145;SDS011;29809;52.432;4.780;2022-09-03T04:37:11;1.95;;;1.27;;
44145;SDS011;29809;52.432;4.780;2022-09-03T04:39:36;2.80;;;1.50;;
44145;SDS011;29809;52.432;4.780;2022-09-03T04:42:01;3.35;;;1.38;;
44145;SDS011;29809;52.432;4.780;2022-09-03T04:44:27;1.33;;;1.20;;
44145;SDS011;29809;52.432;4.780;2022-09-03T04:46:52;1.45;;;1.27;;
44145;SDS011;29809;52.432;4.780;2022-09-03T04:49:17;1.35;;;1.17;;
44145;SDS011;29809;52.432;4.780;2022-09-03T04:51:43;2.53;;;1.48;;
44145;SDS011;29809;52.432;4.780;2022-09-03T04:54:09;1.35;;;1.25;;
44145;SDS011;29809;52.432;4.780;2022-09-03T04:56:35;3.45;;;1.40;;
44145;SDS011;29809;52.432;4.780;2022-09-03T04:59:02;2.58;;;1.58;;
44145;SDS011;29809;52.432;4.780;2022-09-03T05:01:28;2.08;;;1.50;;
44145;SDS011;29809;52.432;4.780;2022-09-03T05:03:56;3.22;;;1.45;;
44145;SDS011;29809;52.432;4.780;2022-09-03T05:06:22;3.03;;;1.33;;
44145;SDS011;29809;52.432;4.780;2022-09-03T05:08:49;1.27;;;1.10;;
44145;SDS011;29809;52.432;4.780;2022-09-03T05:11:15;3.35;;;1.50;;
44145;SDS011;29809;52.432;4.780;2022-09-03T05:13:40;2.45;;;1.42;;
44145;SDS011;29809;52.432;4.780;2022-09-03T05:16:06;2.58;;;1.50;;
44145;SDS011;29809;52.432;4.780;2022-09-03T05:18:32;1.90;;;1.50;;
44145;SDS011;29809;52.432;4.780;2022-09-03T05:21:03;2.25;;;1.30;;
44145;SDS011;29809;52.432;4.780;2022-09-03T05:23:29;2.00;;;1.40;;
44145;SDS011;29809;52.432;4.780;2022-09-03T05:25:58;2.35;;;1.48;;
44145;SDS011;29809;52.432;4.780;2022-09-03T05:28:27;2.67;;;1.27;;
44145;SDS011;29809;52.432;4.780;2022-09-03T05:30:59;1.58;;;1.48;;
44145;SDS011;29809;52.432;4.780;2022-09-03T05:33:24;1.85;;;1.38;;
44145;SDS011;29809;52.432;4.780;2022-09-03T05:35:50;1.55;;;1.40;;
44145;SDS011;29809;52.432;4.780;2022-09-03T05:38:17;2.40;;;1.30;;
44145;SDS011;29809;52.432;4.780;2022-09-03T05:40:42;1.90;;;1.23;;
44145;SDS011;29809;52.432;4.780;2022-09-03T05:43:08;1.30;;;1.20;;
44145;SDS011;29809;52.432;4.780;2022-09-03T05:45:33;1.30;;;1.20;;
44145;SDS011;29809;52.432;4.780;2022-09-03T05:47:59;2.90;;;1.27;;
44145;SDS011;29809;52.432;4.780;2022-09-03T05:50:25;1.25;;;1.10;;
44145;SDS011;29809;52.432;4.780;2022-09-03T05:52:50;2.22;;;1.50;;
44145;SDS011;29809;52.432;4.780;2022-09-03T05:55:15;1.55;;;1.42;;
44145;SDS011;29809;52.432;4.780;2022-09-03T05:57:40;1.73;;;1.40;;
44145;SDS011;29809;52.432;4.780;2022-09-03T06:00:07;3.15;;;1.50;;
44145;SDS011;29809;52.432;4.780;2022-09-03T06:02:33;1.10;;;1.00;;
44145;SDS011;29809;52.432;4.780;2022-09-03T06:04:58;4.18;;;1.50;;
44145;SDS011;29809;52.432;4.780;2022-09-03T06:07:24;2.33;;;1.55;;
44145;SDS011;29809;52.432;4.780;2022-09-03T06:09:49;5.90;;;1.20;;
44145;SDS011;29809;52.432;4.780;2022-09-03T06:12:14;4.45;;;1.45;;
44145;SDS011;29809;52.432;4.780;2022-09-03T06:14:39;1.63;;;1.50;;
44145;SDS011;29809;52.432;4.780;2022-09-03T06:17:05;2.28;;;1.48;;
44145;SDS011;29809;52.432;4.780;2022-09-03T06:19:30;2.22;;;1.35;;
44145;SDS011;29809;52.432;4.780;2022-09-03T06:21:55;2.40;;;1.30;;
44145;SDS011;29809;52.432;4.780;2022-09-03T06:24:21;6.32;;;1.35;;
44145;SDS011;29809;52.432;4.780;2022-09-03T06:26:51;95.32;;;30.92;;
44145;SDS011;29809;52.432;4.780;2022-09-03T06:29:16;183.32;;;54.13;;
44145;SDS011;29809;52.432;4.780;2022-09-03T06:31:44;77.40;;;28.38;;
44145;SDS011;29809;52.432;4.780;2022-09-03T06:34:09;135.38;;;41.97;;
44145;SDS011;29809;52.432;4.780;2022-09-03T06:36:34;90.60;;;36.55;;
44145;SDS011;29809;52.432;4.780;2022-09-03T06:39:00;60.17;;;23.70;;
44145;SDS011;29809;52.432;4.780;2022-09-03T06:41:26;52.22;;;20.48;;
44145;SDS011;29809;52.432;4.780;2022-09-03T06:43:56;33.90;;;14.35;;
44145;SDS011;29809;52.432;4.780;2022-09-03T06:46:31;37.30;;;15.55;;
44145;SDS011;29809;52.432;4.780;2022-09-03T06:48:57;26.17;;;10.38;;
44145;SDS011;29809;52.432;4.780;2022-09-03T06:51:23;20.27;;;7.28;;
44145;SDS011;29809;52.432;4.780;2022-09-03T06:53:50;11.00;;;5.80;;
44145;SDS011;29809;52.432;4.780;2022-09-03T06:56:17;15.07;;;5.28;;
44145;SDS011;29809;52.432;4.780;2022-09-03T06:58:46;10.50;;;4.75;;
44145;SDS011;29809;52.432;4.780;2022-09-03T07:01:15;6.30;;;3.15;;
44145;SDS011;29809;52.432;4.780;2022-09-03T07:03:42;6.43;;;2.97;;
44145;SDS011;29809;52.432;4.780;2022-09-03T07:06:08;6.93;;;2.83;;
44145;SDS011;29809;52.432;4.780;2022-09-03T07:08:34;4.30;;;3.00;;
44145;SDS011;29809;52.432;4.780;2022-09-03T07:10:59;4.78;;;3.10;;
44145;SDS011;29809;52.432;4.780;2022-09-03T07:13:27;5.30;;;2.42;;
44145;SDS011;29809;52.432;4.780;2022-09-03T07:15:59;2.03;;;1.70;;
44145;SDS011;29809;52.432;4.780;2022-09-03T07:18:25;3.05;;;1.75;;
44145;SDS011;29809;52.432;4.780;2022-09-03T07:20:50;2.42;;;1.50;;
44145;SDS011;29809;52.432;4.780;2022-09-03T07:23:15;2.10;;;1.55;;
44145;SDS011;29809;52.432;4.780;2022-09-03T07:25:40;4.43;;;1.90;;
44145;SDS011;29809;52.432;4.780;2022-09-03T07:28:06;1.90;;;1.70;;
44145;SDS011;29809;52.432;4.780;2022-09-03T07:30:31;2.30;;;1.40;;
44145;SDS011;29809;52.432;4.780;2022-09-03T07:32:56;2.33;;;1.42;;
44145;SDS011;29809;52.432;4.780;2022-09-03T07:35:25;2.58;;;1.20;;
44145;SDS011;29809;52.432;4.780;2022-09-03T07:37:51;2.58;;;1.10;;
44145;SDS011;29809;52.432;4.780;2022-09-03T07:40:16;1.73;;;1.00;;
44145;SDS011;29809;52.432;4.780;2022-09-03T07:42:43;4.05;;;1.25;;
44145;SDS011;29809;52.432;4.780;2022-09-03T07:45:09;1.48;;;1.20;;
44145;SDS011;29809;52.432;4.780;2022-09-03T07:47:35;1.33;;;1.23;;
44145;SDS011;29809;52.432;4.780;2022-09-03T07:50:00;1.38;;;1.10;;
44145;SDS011;29809;52.432;4.780;2022-09-03T07:52:26;1.58;;;1.05;;
44145;SDS011;29809;52.432;4.780;2022-09-03T07:54:52;2.03;;;1.30;;
44145;SDS011;29809;52.432;4.780;2022-09-03T07:57:17;1.75;;;1.20;;
44145;SDS011;29809;52.432;4.780;2022-09-03T07:59:42;1.52;;;1.10;;
44145;SDS011;29809;52.432;4.780;2022-09-03T08:02:07;2.83;;;0.90;;
44145;SDS011;29809;52.432;4.780;2022-09-03T08:04:32;2.58;;;1.20;;
44145;SDS011;29809;52.432;4.780;2022-09-03T08:07:00;1.08;;;0.90;;
44145;SDS011;29809;52.432;4.780;2022-09-03T08:09:25;1.10;;;0.90;;
44145;SDS011;29809;52.432;4.780;2022-09-03T08:11:50;1.73;;;1.02;;
44145;SDS011;29809;52.432;4.780;2022-09-03T08:14:16;1.50;;;1.00;;
44145;SDS011;29809;52.432;4.780;2022-09-03T08:16:42;1.27;;;0.75;;
44145;SDS011;29809;52.432;4.780;2022-09-03T08:19:08;1.58;;;1.13;;
44145;SDS011;29809;52.432;4.780;2022-09-03T08:21:33;1.85;;;1.00;;
44145;SDS011;29809;52.432;4.780;2022-09-03T08:23:59;7.05;;;1.20;;
44145;SDS011;29809;52.432;4.780;2022-09-03T08:26:31;1.70;;;1.00;;
44145;SDS011;29809;52.432;4.780;2022-09-03T08:28:57;1.35;;;1.10;;
44145;SDS011;29809;52.432;4.780;2022-09-03T08:31:22;1.67;;;1.17;;
44145;SDS011;29809;52.432;4.780;2022-09-03T08:33:50;1.23;;;1.00;;
44145;SDS011;29809;52.432;4.780;2022-09-03T08:36:20;1.27;;;1.10;;
44145;SDS011;29809;52.432;4.780;2022-09-03T08:38:47;2.83;;;0.95;;
44145;SDS011;29809;52.432;4.780;2022-09-03T08:41:16;1.83;;;0.90;;
44145;SDS011;29809;52.432;4.780;2022-09-03T08:43:51;4.25;;;1.35;;
44145;SDS011;29809;52.432;4.780;2022-09-03T08:46:18;6.25;;;1.33;;
44145;SDS011;29809;52.432;4.780;2022-09-03T08:48:44;3.35;;;0.85;;
44145;SDS011;29809;52.432;4.780;2022-09-03T08:51:11;2.95;;;1.30;;
44145;SDS011;29809;52.432;4.780;2022-09-03T08:53:43;1.33;;;0.98;;
44145;SDS011;29809;52.432;4.780;2022-09-03T08:56:10;1.83;;;1.13;;
44145;SDS011;29809;52.432;4.780;2022-09-03T08:58:36;1.27;;;1.17;;
44145;SDS011;29809;52.432;4.780;2022-09-03T09:11:40;2.78;;;1.10;;
44145;SDS011;29809;52.432;4.780;2022-09-03T09:19:08;3.20;;;1.17;;
44145;SDS011;29809;52.432;4.780;2022-09-03T09:21:36;6.97;;;1.63;;
44145;SDS011;29809;52.432;4.780;2022-09-03T09:24:06;4.82;;;1.38;;
44145;SDS011;29809;52.432;4.780;2022-09-03T09:26:35;2.08;;;1.20;;
44145;SDS011;29809;52.432;4.780;2022-09-03T09:29:03;3.03;;;1.70;;
44145;SDS011;29809;52.432;4.780;2022-09-03T09:31:30;2.63;;;1.30;;
44145;SDS011;29809;52.432;4.780;2022-09-03T09:34:05;2.35;;;1.42;;
44145;SDS011;29809;52.432;4.780;2022-09-03T09:36:36;4.45;;;1.30;;
44145;SDS011;29809;52.432;4.780;2022-09-03T09:39:09;4.50;;;1.35;;
44145;SDS011;29809;52.432;4.780;2022-09-03T09:41:35;4.68;;;1.60;;
44145;SDS011;29809;52.432;4.780;2022-09-03T09:44:00;2.78;;;1.40;;
44145;SDS011;29809;52.432;4.780;2022-09-03T09:46:29;5.85;;;1.50;;
44145;SDS011;29809;52.432;4.780;2022-09-03T09:48:56;3.83;;;1.38;;
44145;SDS011;29809;52.432;4.780;2022-09-03T09:51:23;6.68;;;2.17;;
44145;SDS011;29809;52.432;4.780;2022-09-03T09:56:26;1.90;;;1.45;;
44145;SDS011;29809;52.432;4.780;2022-09-03T10:01:46;4.32;;;1.75;;
44145;SDS011;29809;52.432;4.780;2022-09-03T10:04:12;1.73;;;1.33;;
44145;SDS011;29809;52.432;4.780;2022-09-03T10:06:52;6.97;;;1.27;;
44145;SDS011;29809;52.432;4.780;2022-09-03T10:09:21;2.47;;;1.40;;
44145;SDS011;29809;52.432;4.780;2022-09-03T10:12:03;3.13;;;1.20;;
44145;SDS011;29809;52.432;4.780;2022-09-03T10:14:33;3.28;;;1.30;;
44145;SDS011;29809;52.432;4.780;2022-09-03T10:17:08;1.90;;;1.00;;
44145;SDS011;29809;52.432;4.780;2022-09-03T10:22:39;3.08;;;1.15;;
44145;SDS011;29809;52.432;4.780;2022-09-03T10:25:08;5.03;;;1.45;;
44145;SDS011;29809;52.432;4.780;2022-09-03T10:27:33;2.63;;;1.38;;
44145;SDS011;29809;52.432;4.780;2022-09-03T10:30:00;1.98;;;1.35;;
44145;SDS011;29809;52.432;4.780;2022-09-03T10:32:28;4.15;;;1.38;;
44145;SDS011;29809;52.432;4.780;2022-09-03T10:35:03;2.40;;;1.50;;
44145;SDS011;29809;52.432;4.780;2022-09-03T10:40:11;2.58;;;1.30;;
44145;SDS011;29809;52.432;4.780;2022-09-03T10:50:33;3.35;;;1.17;;
44145;SDS011;29809;52.432;4.780;2022-09-03T10:53:25;6.25;;;1.48;;
44145;SDS011;29809;52.432;4.780;2022-09-03T11:00:58;2.00;;;1.45;;
44145;SDS011;29809;52.432;4.780;2022-09-03T11:06:28;3.80;;;1.25;;
44145;SDS011;29809;52.432;4.780;2022-09-03T11:08:58;4.00;;;1.38;;
44145;SDS011;29809;52.432;4.780;2022-09-03T11:11:27;3.55;;;1.08;;
44145;SDS011;29809;52.432;4.780;2022-09-03T11:13:55;1.55;;;1.15;;
44145;SDS011;29809;52.432;4.780;2022-09-03T11:16:27;2.08;;;1.17;;
44145;SDS011;29809;52.432;4.780;2022-09-03T11:19:08;1.35;;;1.10;;
44145;SDS011;29809;52.432;4.780;2022-09-03T11:21:35;2.42;;;1.40;;
44145;SDS011;29809;52.432;4.780;2022-09-03T11:24:06;1.77;;;1.30;;
44145;SDS011;29809;52.432;4.780;2022-09-03T11:26:32;1.45;;;1.15;;
44145;SDS011;29809;52.432;4.780;2022-09-03T11:34:43;1.73;;;1.15;;
44145;SDS011;29809;52.432;4.780;2022-09-03T11:39:38;5.05;;;1.40;;
44145;SDS011;29809;52.432;4.780;2022-09-03T11:42:19;2.88;;;1.10;;
44145;SDS011;29809;52.432;4.780;2022-09-03T11:44:49;2.83;;;1.48;;
44145;SDS011;29809;52.432;4.780;2022-09-03T11:49:47;1.80;;;1.00;;
44145;SDS011;29809;52.432;4.780;2022-09-03T11:52:24;1.75;;;1.00;;
44145;SDS011;29809;52.432;4.780;2022-09-03T11:54:49;5.82;;;1.30;;
44145;SDS011;29809;52.432;4.780;2022-09-03T11:57:19;3.20;;;1.20;;
44145;SDS011;29809;52.432;4.780;2022-09-03T11:59:47;5.60;;;1.00;;
44145;SDS011;29809;52.432;4.780;2022-09-03T12:02:19;4.07;;;1.23;;
44145;SDS011;29809;52.432;4.780;2022-09-03T12:07:42;2.83;;;0.90;;
44145;SDS011;29809;52.432;4.780;2022-09-03T12:10:16;2.42;;;1.13;;
44145;SDS011;29809;52.432;4.780;2022-09-03T12:15:33;1.58;;;1.15;;
44145;SDS011;29809;52.432;4.780;2022-09-03T12:20:44;1.08;;;1.00;;
44145;SDS011;29809;52.432;4.780;2022-09-03T12:23:11;1.77;;;1.17;;
44145;SDS011;29809;52.432;4.780;2022-09-03T12:25:45;2.78;;;1.13;;
44145;SDS011;29809;52.432;4.780;2022-09-03T12:28:12;2.33;;;1.00;;
44145;SDS011;29809;52.432;4.780;2022-09-03T12:30:40;4.38;;;1.20;;
44145;SDS011;29809;52.432;4.780;2022-09-03T12:33:06;3.00;;;1.23;;
44145;SDS011;29809;52.432;4.780;2022-09-03T12:35:31;3.72;;;1.30;;
44145;SDS011;29809;52.432;4.780;2022-09-03T12:37:56;1.25;;;0.85;;
44145;SDS011;29809;52.432;4.780;2022-09-03T12:40:22;3.78;;;0.90;;
44145;SDS011;29809;52.432;4.780;2022-09-03T12:42:48;3.72;;;1.00;;
44145;SDS011;29809;52.432;4.780;2022-09-03T12:45:14;2.53;;;0.85;;
44145;SDS011;29809;52.432;4.780;2022-09-03T12:47:42;1.27;;;1.08;;
44145;SDS011;29809;52.432;4.780;2022-09-03T12:50:10;1.67;;;1.00;;
44145;SDS011;29809;52.432;4.780;2022-09-03T12:52:39;3.17;;;1.35;;
44145;SDS011;29809;52.432;4.780;2022-09-03T12:55:51;1.75;;;1.23;;
44145;SDS011;29809;52.432;4.780;2022-09-03T12:57:56;1.65;;;1.10;;
44145;SDS011;29809;52.432;4.780;2022-09-03T13:00:24;2.38;;;0.95;;
44145;SDS011;29809;52.432;4.780;2022-09-03T13:02:52;2.90;;;1.10;;
44145;SDS011;29809;52.432;4.780;2022-09-03T13:07:55;1.85;;;1.10;;
44145;SDS011;29809;52.432;4.780;2022-09-03T13:10:28;1.98;;;0.93;;
44145;SDS011;29809;52.432;4.780;2022-09-03T13:13:01;2.55;;;1.10;;
44145;SDS011;29809;52.432;4.780;2022-09-03T13:15:28;3.55;;;1.17;;
44145;SDS011;29809;52.432;4.780;2022-09-03T13:18:00;1.30;;;1.20;;
44145;SDS011;29809;52.432;4.780;2022-09-03T13:28:08;4.85;;;1.10;;
44145;SDS011;29809;52.432;4.780;2022-09-03T13:30:57;2.33;;;1.10;;
44145;SDS011;29809;52.432;4.780;2022-09-03T13:33:35;1.45;;;1.17;;
44145;SDS011;29809;52.432;4.780;2022-09-03T13:36:03;1.80;;;0.95;;
44145;SDS011;29809;52.432;4.780;2022-09-03T13:38:38;3.28;;;1.45;;
44145;SDS011;29809;52.432;4.780;2022-09-03T13:41:10;1.05;;;0.88;;
44145;SDS011;29809;52.432;4.780;2022-09-03T13:43:47;3.80;;;1.42;;
44145;SDS011;29809;52.432;4.780;2022-09-03T13:46:19;1.83;;;1.10;;
44145;SDS011;29809;52.432;4.780;2022-09-03T13:48:47;2.90;;;1.38;;
44145;SDS011;29809;52.432;4.780;2022-09-03T13:54:11;3.53;;;1.20;;
44145;SDS011;29809;52.432;4.780;2022-09-03T13:59:15;3.33;;;1.10;;
44145;SDS011;29809;52.432;4.780;2022-09-03T14:04:16;3.00;;;0.90;;
44145;SDS011;29809;52.432;4.780;2022-09-03T14:06:47;1.88;;;1.20;;
44145;SDS011;29809;52.432;4.780;2022-09-03T14:19:10;2.10;;;1.15;;
44145;SDS011;29809;52.432;4.780;2022-09-03T14:21:59;8.07;;;1.33;;
44145;SDS011;29809;52.432;4.780;2022-09-03T14:24:23;2.55;;;0.93;;
44145;SDS011;29809;52.432;4.780;2022-09-03T14:26:55;4.63;;;1.30;;
44145;SDS011;29809;52.432;4.780;2022-09-03T14:29:27;3.50;;;1.20;;
44145;SDS011;29809;52.432;4.780;2022-09-03T14:34:37;6.57;;;1.23;;
44145;SDS011;29809;52.432;4.780;2022-09-03T14:55:24;3.53;;;1.13;;
44145;SDS011;29809;52.432;4.780;2022-09-03T14:58:11;5.22;;;1.45;;
44145;SDS011;29809;52.432;4.780;2022-09-03T15:00:51;1.75;;;0.88;;
44145;SDS011;29809;52.432;4.780;2022-09-03T15:06:10;5.30;;;1.40;;
44145;SDS011;29809;52.432;4.780;2022-09-03T15:08:43;5.10;;;1.08;;
44145;SDS011;29809;52.432;4.780;2022-09-03T15:11:20;2.85;;;1.23;;
44145;SDS011;29809;52.432;4.780;2022-09-03T15:24:47;3.42;;;1.33;;
44145;SDS011;29809;52.432;4.780;2022-09-03T15:30:10;5.10;;;1.95;;
44145;SDS011;29809;52.432;4.780;2022-09-03T15:33:18;3.40;;;1.58;;
44145;SDS011;29809;52.432;4.780;2022-09-03T15:37:58;1.33;;;1.00;;
44145;SDS011;29809;52.432;4.780;2022-09-03T15:40:30;1.00;;;0.90;;
44145;SDS011;29809;52.432;4.780;2022-09-03T15:43:04;6.00;;;1.13;;
44145;SDS011;29809;52.432;4.780;2022-09-03T15:48:21;2.53;;;1.13;;
44145;SDS011;29809;52.432;4.780;2022-09-03T15:53:24;3.85;;;0.98;;
44145;SDS011;29809;52.432;4.780;2022-09-03T15:56:10;2.45;;;0.90;;
44145;SDS011;29809;52.432;4.780;2022-09-03T15:58:49;2.00;;;1.05;;
44145;SDS011;29809;52.432;4.780;2022-09-03T16:01:24;2.22;;;1.10;;
44145;SDS011;29809;52.432;4.780;2022-09-03T16:03:55;2.15;;;1.00;;
44145;SDS011;29809;52.432;4.780;2022-09-03T16:08:59;2.45;;;1.20;;
44145;SDS011;29809;52.432;4.780;2022-09-03T16:11:33;5.00;;;1.10;;
44145;SDS011;29809;52.432;4.780;2022-09-03T16:16:56;1.05;;;0.90;;
44145;SDS011;29809;52.432;4.780;2022-09-03T16:19:33;4.25;;;1.48;;
44145;SDS011;29809;52.432;4.780;2022-09-03T16:24:46;1.77;;;1.02;;
44145;SDS011;29809;52.432;4.780;2022-09-03T16:27:16;1.70;;;1.02;;
44145;SDS011;29809;52.432;4.780;2022-09-03T16:29:53;3.17;;;1.00;;
44145;SDS011;29809;52.432;4.780;2022-09-03T16:32:26;1.00;;;0.90;;
44145;SDS011;29809;52.432;4.780;2022-09-03T16:38:03;1.33;;;1.20;;
44145;SDS011;29809;52.432;4.780;2022-09-03T16:43:11;2.90;;;1.17;;
44145;SDS011;29809;52.432;4.780;2022-09-03T16:53:24;1.42;;;1.20;;
44145;SDS011;29809;52.432;4.780;2022-09-03T16:58:54;1.65;;;1.10;;
44145;SDS011;29809;52.432;4.780;2022-09-03T17:01:37;2.58;;;1.20;;
44145;SDS011;29809;52.432;4.780;2022-09-03T17:17:16;5.35;;;1.30;;
44145;SDS011;29809;52.432;4.780;2022-09-03T17:19:50;5.93;;;1.08;;
44145;SDS011;29809;52.432;4.780;2022-09-03T17:24:52;7.53;;;1.20;;
44145;SDS011;29809;52.432;4.780;2022-09-03T17:27:29;2.17;;;1.02;;
44145;SDS011;29809;52.432;4.780;2022-09-03T17:30:04;3.13;;;1.25;;
44145;SDS011;29809;52.432;4.780;2022-09-03T17:35:49;3.13;;;1.50;;
44145;SDS011;29809;52.432;4.780;2022-09-03T17:42:59;4.78;;;1.45;;
44145;SDS011;29809;52.432;4.780;2022-09-03T17:50:57;5.22;;;1.67;;
44145;SDS011;29809;52.432;4.780;2022-09-03T17:56:11;2.58;;;1.50;;
44145;SDS011;29809;52.432;4.780;2022-09-03T17:58:50;2.92;;;1.70;;
44145;SDS011;29809;52.432;4.780;2022-09-03T18:01:22;4.20;;;2.50;;
44145;SDS011;29809;52.432;4.780;2022-09-03T18:03:54;4.72;;;2.22;;
44145;SDS011;29809;52.432;4.780;2022-09-03T18:08:55;1.92;;;1.83;;
44145;SDS011;29809;52.432;4.780;2022-09-03T18:11:40;3.72;;;2.10;;
44145;SDS011;29809;52.432;4.780;2022-09-03T18:16:34;2.47;;;1.92;;
44145;SDS011;29809;52.432;4.780;2022-09-03T18:19:48;3.78;;;1.85;;
44145;SDS011;29809;52.432;4.780;2022-09-03T18:21:59;3.90;;;1.90;;
44145;SDS011;29809;52.432;4.780;2022-09-03T18:24:51;2.33;;;1.77;;
44145;SDS011;29809;52.432;4.780;2022-09-03T18:27:44;1.98;;;1.60;;
44145;SDS011;29809;52.432;4.780;2022-09-03T18:30:30;4.20;;;2.30;;
44145;SDS011;29809;52.432;4.780;2022-09-03T18:33:15;3.40;;;2.03;;
44145;SDS011;29809;52.432;4.780;2022-09-03T18:36:01;3.28;;;2.08;;
44145;SDS011;29809;52.432;4.780;2022-09-03T18:38:45;3.63;;;2.40;;
44145;SDS011;29809;52.432;4.780;2022-09-03T18:50:21;2.58;;;1.63;;
44145;SDS011;29809;52.432;4.780;2022-09-03T18:53:14;3.33;;;1.88;;
44145;SDS011;29809;52.432;4.780;2022-09-03T19:01:35;2.85;;;1.70;;
44145;SDS011;29809;52.432;4.780;2022-09-03T19:07:10;2.55;;;1.40;;
44145;SDS011;29809;52.432;4.780;2022-09-03T19:10:00;1.42;;;1.30;;
44145;SDS011;29809;52.432;4.780;2022-09-03T19:12:49;3.17;;;1.63;;
44145;SDS011;29809;52.432;4.780;2022-09-03T19:15:38;3.83;;;1.15;;
44145;SDS011;29809;52.432;4.780;2022-09-03T19:21:30;2.20;;;1.30;;
44145;SDS011;29809;52.432;4.780;2022-09-03T19:24:17;2.85;;;1.40;;
44145;SDS011;29809;52.432;4.780;2022-09-03T19:27:04;1.70;;;1.30;;
44145;SDS011;29809;52.432;4.780;2022-09-03T19:35:47;2.05;;;1.20;;
44145;SDS011;29809;52.432;4.780;2022-09-03T19:47:05;2.83;;;1.50;;
44145;SDS011;29809;52.432;4.780;2022-09-03T19:52:37;15.52;;;1.98;;
44145;SDS011;29809;52.432;4.780;2022-09-03T19:55:26;8.93;;;2.33;;
44145;SDS011;29809;52.432;4.780;2022-09-03T19:58:12;7.30;;;2.30;;
44145;SDS011;29809;52.432;4.780;2022-09-03T20:00:59;4.15;;;1.90;;
44145;SDS011;29809;52.432;4.780;2022-09-03T20:03:43;6.15;;;2.50;;
44145;SDS011;29809;52.432;4.780;2022-09-03T20:06:28;5.05;;;1.90;;